Time;durP1;ratioP1;P1;durP2;ratioP2;P2;SDS_P1;SDS_P2;PMS_P1;PMS_P2;Temp;Humidity;BMP_temperature;BMP_pressure;BME280_temperature;BME280_humidity;BME280_pressure;Samples;Min_cycle;Max_cycle;Signal;HPM_P1;HPM_P2
2022/03/28 00:02:23;;;;;;;4.18;1.30;;;;;;;;;;5033545;28;20034;-66
2022/03/28 00:04:49;;;;;;;4.50;1.30;;;;;;;;;;5038863;28;20025;-66
2022/03/28 00:07:15;;;;;;;4.18;1.73;;;;;;;;;;5043679;28;20029;-65
2022/03/28 00:09:43;;;;;;;3.20;1.40;;;;;;;;;;5040147;28;20707;-68
2022/03/28 00:12:10;;;;;;;2.97;1.25;;;;;;;;;;5019718;28;20040;-67
2022/03/28 00:14:36;;;;;;;6.53;1.48;;;;;;;;;;5033884;28;20029;-67
2022/03/28 00:17:03;;;;;;;5.22;1.50;;;;;;;;;;5041400;28;20056;-66
2022/03/28 00:19:29;;;;;;;6.40;1.65;;;;;;;;;;5037477;28;20026;-65
2022/03/28 00:21:56;;;;;;;6.57;1.55;;;;;;;;;;5033899;28;20047;-64
2022/03/28 00:24:22;;;;;;;6.18;1.55;;;;;;;;;;5042906;28;20021;-66
2022/03/28 00:26:48;;;;;;;5.10;1.50;;;;;;;;;;5046759;28;20025;-67
2022/03/28 00:29:14;;;;;;;6.28;1.60;;;;;;;;;;5041074;28;20020;-67
2022/03/28 00:31:40;;;;;;;9.02;1.58;;;;;;;;;;5048011;28;20033;-65
2022/03/28 00:34:08;;;;;;;8.07;1.70;;;;;;;;;;5041175;28;20021;-65
2022/03/28 00:36:34;;;;;;;3.03;1.10;;;;;;;;;;5042055;28;20033;-63
2022/03/28 00:39:00;;;;;;;4.68;1.30;;;;;;;;;;5048409;28;20499;-64
2022/03/28 00:41:26;;;;;;;6.85;1.45;;;;;;;;;;5040354;28;20029;-65
2022/03/28 00:43:56;;;;;;;7.05;1.70;;;;;;;;;;5032616;28;20052;-63
2022/03/28 00:46:22;;;;;;;8.00;1.83;;;;;;;;;;5051150;28;20027;-66
2022/03/28 00:48:49;;;;;;;7.55;1.52;;;;;;;;;;5034837;28;20112;-65
2022/03/28 00:51:19;;;;;;;4.13;1.35;;;;;;;;;;5039188;28;20086;-67
2022/03/28 00:53:46;;;;;;;5.45;1.40;;;;;;;;;;5042531;28;20053;-64
2022/03/28 00:56:15;;;;;;;3.55;1.30;;;;;;;;;;5035678;28;20025;-64
2022/03/28 00:58:41;;;;;;;6.95;1.20;;;;;;;;;;5039867;28;20630;-64
2022/03/28 01:01:09;;;;;;;5.07;1.50;;;;;;;;;;5039427;28;20030;-65
2022/03/28 01:03:35;;;;;;;3.90;1.40;;;;;;;;;;5037644;28;20373;-65
2022/03/28 01:06:01;;;;;;;4.80;1.33;;;;;;;;;;5036659;28;20026;-64
2022/03/28 01:08:27;;;;;;;3.47;1.48;;;;;;;;;;5040647;28;20029;-67
2022/03/28 01:10:55;;;;;;;5.75;1.38;;;;;;;;;;5037088;28;20037;-65
2022/03/28 01:13:21;;;;;;;6.53;1.48;;;;;;;;;;5025337;28;20029;-64
2022/03/28 01:15:47;;;;;;;5.15;1.45;;;;;;;;;;5044103;28;20042;-66
2022/03/28 01:18:15;;;;;;;7.03;1.60;;;;;;;;;;5044693;28;20036;-66
2022/03/28 01:20:41;;;;;;;3.10;1.20;;;;;;;;;;5044892;28;20060;-68
2022/03/28 01:23:08;;;;;;;3.42;1.30;;;;;;;;;;5040301;28;20026;-65
2022/03/28 01:25:35;;;;;;;4.55;1.30;;;;;;;;;;5045037;28;20021;-66
2022/03/28 01:28:01;;;;;;;4.68;1.67;;;;;;;;;;5036659;28;20032;-65
2022/03/28 01:30:28;;;;;;;5.05;1.70;;;;;;;;;;5039946;28;20039;-66
2022/03/28 01:32:55;;;;;;;2.72;1.20;;;;;;;;;;5051735;28;20404;-66
2022/03/28 01:35:28;;;;;;;5.57;1.67;;;;;;;;;;5034554;28;20036;-65
2022/03/28 01:37:54;;;;;;;3.05;1.17;;;;;;;;;;5035614;28;20067;-66
2022/03/28 01:40:20;;;;;;;4.97;1.48;;;;;;;;;;5039245;28;20053;-65
2022/03/28 01:42:48;;;;;;;2.97;1.15;;;;;;;;;;5032575;28;20032;-69
2022/03/28 01:45:15;;;;;;;4.68;1.35;;;;;;;;;;5038125;28;20025;-65
2022/03/28 01:47:41;;;;;;;6.05;1.50;;;;;;;;;;5024074;28;20028;-65
2022/03/28 01:50:14;;;;;;;4.75;1.23;;;;;;;;;;5030632;28;20048;-65
2022/03/28 01:52:40;;;;;;;4.93;1.83;;;;;;;;;;5040715;28;20115;-66
2022/03/28 01:55:06;;;;;;;5.03;1.48;;;;;;;;;;5031314;28;20126;-65
2022/03/28 01:57:32;;;;;;;5.22;1.40;;;;;;;;;;5043117;28;20425;-65
2022/03/28 01:59:59;;;;;;;4.50;1.60;;;;;;;;;;5022831;28;20025;-65
2022/03/28 02:02:25;;;;;;;4.90;1.25;;;;;;;;;;5031851;28;20056;-67
2022/03/28 02:04:51;;;;;;;7.57;1.75;;;;;;;;;;5032160;28;20103;-65
2022/03/28 02:07:17;;;;;;;3.65;1.17;;;;;;;;;;5018161;28;20029;-67
2022/03/28 02:09:44;;;;;;;5.72;1.63;;;;;;;;;;5040981;28;20098;-66
2022/03/28 02:12:10;;;;;;;4.43;1.42;;;;;;;;;;5033818;28;20048;-66
2022/03/28 02:14:36;;;;;;;3.67;1.30;;;;;;;;;;5028293;28;20443;-66
2022/03/28 02:17:01;;;;;;;4.10;1.60;;;;;;;;;;5037540;28;20688;-66
2022/03/28 02:19:27;;;;;;;5.85;1.77;;;;;;;;;;5046876;28;20017;-64
2022/03/28 02:21:53;;;;;;;5.18;1.50;;;;;;;;;;5047891;28;20057;-67
2022/03/28 02:24:19;;;;;;;5.95;1.30;;;;;;;;;;5046074;28;20684;-67
2022/03/28 02:26:45;;;;;;;5.93;1.42;;;;;;;;;;5039426;28;20040;-66
2022/03/28 02:29:11;;;;;;;4.60;1.40;;;;;;;;;;5036862;28;20030;-67
2022/03/28 02:31:37;;;;;;;5.38;1.33;;;;;;;;;;5045330;28;20374;-65
2022/03/28 02:34:03;;;;;;;3.08;1.30;;;;;;;;;;5043118;28;20033;-66
2022/03/28 02:36:30;;;;;;;3.95;1.35;;;;;;;;;;5021915;28;20116;-65
2022/03/28 02:38:56;;;;;;;7.05;1.55;;;;;;;;;;5048844;28;20097;-70
2022/03/28 02:41:21;;;;;;;4.40;1.40;;;;;;;;;;5044761;28;20512;-67
2022/03/28 02:43:48;;;;;;;8.10;1.58;;;;;;;;;;5033685;28;20033;-65
2022/03/28 02:46:14;;;;;;;6.05;1.75;;;;;;;;;;5035258;28;20021;-65
2022/03/28 02:48:40;;;;;;;4.25;1.55;;;;;;;;;;5029491;28;20460;-66
2022/03/28 02:51:06;;;;;;;3.05;1.45;;;;;;;;;;5045523;28;20512;-68
2022/03/28 02:53:32;;;;;;;5.45;1.45;;;;;;;;;;5043715;28;20079;-64
2022/03/28 02:55:59;;;;;;;3.58;1.45;;;;;;;;;;5043092;28;20029;-68
2022/03/28 02:58:25;;;;;;;4.65;1.60;;;;;;;;;;5038790;28;20021;-68
2022/03/28 03:00:51;;;;;;;4.43;1.70;;;;;;;;;;5022003;28;20392;-64
2022/03/28 03:03:17;;;;;;;4.53;1.60;;;;;;;;;;5036477;28;20028;-65
2022/03/28 03:05:43;;;;;;;5.25;1.70;;;;;;;;;;5019931;28;20493;-64
2022/03/28 03:08:09;;;;;;;5.00;1.75;;;;;;;;;;5043136;28;20139;-68
2022/03/28 03:10:35;;;;;;;4.18;1.40;;;;;;;;;;5031155;28;20057;-66
2022/03/28 03:13:02;;;;;;;2.72;1.33;;;;;;;;;;5020935;28;20069;-65
2022/03/28 03:15:28;;;;;;;5.45;1.20;;;;;;;;;;5038858;28;20061;-64
2022/03/28 03:17:54;;;;;;;4.10;1.40;;;;;;;;;;5041665;28;20064;-64
2022/03/28 03:20:19;;;;;;;2.72;1.30;;;;;;;;;;5038332;28;20487;-64
2022/03/28 03:22:45;;;;;;;6.47;1.40;;;;;;;;;;5050065;28;20033;-65
2022/03/28 03:25:11;;;;;;;5.47;1.67;;;;;;;;;;5034512;28;20043;-66
2022/03/28 03:27:40;;;;;;;4.57;1.42;;;;;;;;;;5033021;28;20024;-67
2022/03/28 03:30:07;;;;;;;2.88;1.30;;;;;;;;;;5038953;28;20143;-65
2022/03/28 03:32:35;;;;;;;4.63;1.52;;;;;;;;;;5034950;28;20940;-66
2022/03/28 03:35:01;;;;;;;4.22;1.55;;;;;;;;;;5034349;28;20481;-66
2022/03/28 03:37:28;;;;;;;3.70;1.40;;;;;;;;;;5037768;28;20114;-67
2022/03/28 03:39:54;;;;;;;4.28;1.33;;;;;;;;;;5034222;28;20021;-64
2022/03/28 03:42:20;;;;;;;3.70;1.35;;;;;;;;;;5041807;28;20546;-68
2022/03/28 03:44:46;;;;;;;6.35;1.30;;;;;;;;;;5033526;28;20034;-66
2022/03/28 03:47:12;;;;;;;4.18;1.67;;;;;;;;;;5041502;28;20025;-65
2022/03/28 03:49:38;;;;;;;3.70;1.38;;;;;;;;;;5042656;28;20104;-64
2022/03/28 03:52:04;;;;;;;4.95;1.58;;;;;;;;;;5027613;28;20124;-64
2022/03/28 03:54:31;;;;;;;2.13;1.33;;;;;;;;;;5026685;28;20060;-64
2022/03/28 03:56:57;;;;;;;3.08;1.40;;;;;;;;;;5038296;28;20024;-67
2022/03/28 03:59:23;;;;;;;6.30;1.45;;;;;;;;;;5049398;28;20032;-65
2022/03/28 04:01:49;;;;;;;4.10;1.58;;;;;;;;;;5045919;28;20025;-66
2022/03/28 04:04:16;;;;;;;5.15;1.35;;;;;;;;;;5036702;28;20021;-65
2022/03/28 04:06:42;;;;;;;3.58;1.30;;;;;;;;;;5036134;28;20392;-67
2022/03/28 04:09:08;;;;;;;4.50;1.70;;;;;;;;;;5036144;28;20025;-64
2022/03/28 04:11:34;;;;;;;5.35;1.55;;;;;;;;;;5038910;28;20045;-66
2022/03/28 04:14:00;;;;;;;3.45;1.45;;;;;;;;;;5034289;28;20028;-64
2022/03/28 04:16:26;;;;;;;5.70;1.38;;;;;;;;;;5041244;28;20644;-66
2022/03/28 04:18:52;;;;;;;5.55;1.63;;;;;;;;;;5043839;28;20499;-65
2022/03/28 04:21:18;;;;;;;2.97;1.00;;;;;;;;;;5024837;28;20037;-66
2022/03/28 04:23:44;;;;;;;6.70;1.70;;;;;;;;;;5011639;28;20021;-65
2022/03/28 04:26:10;;;;;;;1.92;1.20;;;;;;;;;;5052774;28;20035;-68
2022/03/28 04:28:37;;;;;;;3.10;1.30;;;;;;;;;;5042301;28;20029;-68
2022/03/28 04:31:03;;;;;;;4.18;1.30;;;;;;;;;;5045955;28;20117;-66
2022/03/28 04:33:30;;;;;;;3.78;1.40;;;;;;;;;;5045881;28;20024;-67
2022/03/28 04:35:56;;;;;;;4.88;1.25;;;;;;;;;;5040090;28;20468;-66
2022/03/28 04:38:24;;;;;;;3.53;1.40;;;;;;;;;;5047444;28;20060;-64
2022/03/28 04:40:50;;;;;;;4.70;1.52;;;;;;;;;;5033826;28;20093;-65
2022/03/28 04:43:16;;;;;;;9.50;1.38;;;;;;;;;;5038293;28;20100;-66
2022/03/28 04:45:42;;;;;;;4.35;1.27;;;;;;;;;;5049932;28;20041;-65
2022/03/28 04:48:08;;;;;;;5.18;2.00;;;;;;;;;;5044610;28;20053;-65
2022/03/28 04:50:34;;;;;;;5.82;1.77;;;;;;;;;;5016016;28;20034;-68
2022/03/28 04:53:01;;;;;;;4.72;1.58;;;;;;;;;;5033667;28;20033;-65
2022/03/28 04:55:27;;;;;;;7.05;1.38;;;;;;;;;;5046730;28;20025;-66
2022/03/28 04:57:53;;;;;;;3.38;1.40;;;;;;;;;;5040042;28;20029;-66
2022/03/28 05:00:19;;;;;;;4.32;1.90;;;;;;;;;;5042452;28;20025;-65
2022/03/28 05:02:45;;;;;;;4.15;1.40;;;;;;;;;;5043572;28;20354;-65
2022/03/28 05:05:11;;;;;;;5.32;1.33;;;;;;;;;;5037111;28;20029;-65
2022/03/28 05:07:38;;;;;;;6.97;1.48;;;;;;;;;;5049787;28;20025;-65
2022/03/28 05:10:05;;;;;;;3.75;1.25;;;;;;;;;;5036412;28;20018;-65
2022/03/28 05:12:31;;;;;;;4.38;1.20;;;;;;;;;;5037980;28;20548;-68
2022/03/28 05:14:57;;;;;;;4.15;1.58;;;;;;;;;;5040279;28;20043;-67
2022/03/28 05:17:27;;;;;;;3.08;1.17;;;;;;;;;;5046283;28;20053;-67
2022/03/28 05:19:54;;;;;;;3.38;1.23;;;;;;;;;;5037972;28;20035;-69
2022/03/28 05:22:20;;;;;;;5.53;1.40;;;;;;;;;;5040263;28;20032;-65
2022/03/28 05:24:47;;;;;;;2.83;1.20;;;;;;;;;;5041923;28;20031;-65
2022/03/28 05:27:13;;;;;;;4.30;1.23;;;;;;;;;;5039746;28;20037;-66
2022/03/28 05:29:39;;;;;;;12.80;1.95;;;;;;;;;;5046866;28;20029;-70
2022/03/28 05:32:05;;;;;;;15.35;2.30;;;;;;;;;;5039456;28;20133;-68
2022/03/28 05:34:31;;;;;;;21.15;2.08;;;;;;;;;;5044590;28;20510;-67
2022/03/28 05:37:01;;;;;;;12.27;2.58;;;;;;;;;;5022034;28;20024;-70
2022/03/28 05:39:27;;;;;;;28.83;2.45;;;;;;;;;;5044635;28;20097;-67
2022/03/28 05:41:53;;;;;;;55.38;3.13;;;;;;;;;;5015863;28;20468;-67
2022/03/28 05:44:19;;;;;;;72.13;3.63;;;;;;;;;;5042081;28;20464;-65
2022/03/28 05:46:48;;;;;;;37.45;2.97;;;;;;;;;;5043209;28;20802;-65
2022/03/28 05:49:14;;;;;;;35.60;3.63;;;;;;;;;;5044519;28;20013;-69
2022/03/28 05:51:40;;;;;;;36.85;3.75;;;;;;;;;;5043691;28;20044;-65
2022/03/28 05:54:05;;;;;;;25.45;2.85;;;;;;;;;;5050792;28;20032;-67
2022/03/28 05:56:32;;;;;;;28.95;2.75;;;;;;;;;;5053512;28;20029;-65
2022/03/28 05:58:57;;;;;;;35.33;3.75;;;;;;;;;;5034465;28;20392;-67
2022/03/28 06:01:24;;;;;;;25.83;2.70;;;;;;;;;;5033119;28;20417;-66
2022/03/28 06:03:50;;;;;;;25.92;2.67;;;;;;;;;;5033488;28;20033;-67
2022/03/28 06:06:16;;;;;;;19.83;2.42;;;;;;;;;;5048751;28;20024;-67
2022/03/28 06:08:43;;;;;;;20.25;2.40;;;;;;;;;;5053011;28;20032;-68
2022/03/28 06:11:10;;;;;;;18.77;2.78;;;;;;;;;;5052168;28;20036;-68
2022/03/28 06:13:36;;;;;;;16.88;3.40;;;;;;;;;;5053320;28;20029;-70
2022/03/28 06:16:03;;;;;;;32.70;3.22;;;;;;;;;;5052962;28;20127;-67
2022/03/28 06:18:29;;;;;;;16.92;2.83;;;;;;;;;;5019710;28;20026;-67
2022/03/28 06:20:55;;;;;;;27.50;3.08;;;;;;;;;;5033022;28;20085;-68
2022/03/28 06:23:21;;;;;;;16.30;3.17;;;;;;;;;;5033099;28;20021;-67
2022/03/28 06:25:48;;;;;;;15.27;3.00;;;;;;;;;;5032876;28;20444;-69
2022/03/28 06:28:15;;;;;;;26.08;4.38;;;;;;;;;;5033135;28;20030;-68
2022/03/28 06:30:41;;;;;;;10.15;3.05;;;;;;;;;;5032809;28;20385;-69
2022/03/28 06:33:07;;;;;;;18.83;3.92;;;;;;;;;;5027390;28;20033;-68
2022/03/28 06:35:33;;;;;;;11.57;3.60;;;;;;;;;;5032948;28;20396;-67
2022/03/28 06:37:59;;;;;;;12.10;3.20;;;;;;;;;;5032893;28;20059;-67
2022/03/28 06:40:25;;;;;;;15.88;3.50;;;;;;;;;;5032558;28;20032;-67
2022/03/28 06:42:51;;;;;;;20.23;3.50;;;;;;;;;;5032522;28;20444;-67
2022/03/28 06:45:17;;;;;;;7.13;3.58;;;;;;;;;;5032664;28;20127;-68
2022/03/28 06:47:44;;;;;;;13.68;3.53;;;;;;;;;;5032653;28;20480;-69
2022/03/28 06:50:10;;;;;;;14.80;3.45;;;;;;;;;;5031092;28;20025;-68
2022/03/28 06:52:37;;;;;;;21.63;3.67;;;;;;;;;;5032144;28;20056;-68
2022/03/28 06:55:03;;;;;;;8.32;3.13;;;;;;;;;;5032653;28;20093;-67
2022/03/28 06:57:29;;;;;;;10.10;3.03;;;;;;;;;;5032349;28;20109;-68
2022/03/28 06:59:55;;;;;;;7.40;2.72;;;;;;;;;;5050788;28;20112;-69
2022/03/28 07:02:21;;;;;;;7.22;3.13;;;;;;;;;;5052058;28;20502;-67
2022/03/28 07:04:47;;;;;;;14.98;3.42;;;;;;;;;;5039605;28;20037;-69
2022/03/28 07:07:14;;;;;;;8.00;2.80;;;;;;;;;;5026939;28;20032;-66
2022/03/28 07:09:40;;;;;;;13.27;3.58;;;;;;;;;;5033385;28;20064;-67
2022/03/28 07:12:06;;;;;;;16.08;3.33;;;;;;;;;;5031929;28;20065;-67
2022/03/28 07:14:33;;;;;;;9.63;3.40;;;;;;;;;;5039031;28;20547;-66
2022/03/28 07:16:59;;;;;;;6.40;3.55;;;;;;;;;;5034630;28;20049;-68
2022/03/28 07:19:25;;;;;;;11.23;3.53;;;;;;;;;;5034234;28;20083;-68
2022/03/28 07:21:51;;;;;;;13.82;3.22;;;;;;;;;;5052647;28;20032;-68
2022/03/28 07:24:18;;;;;;;12.27;2.80;;;;;;;;;;5046402;28;20016;-67
2022/03/28 07:26:48;;;;;;;11.27;3.50;;;;;;;;;;5036425;28;20037;-69
2022/03/28 07:29:14;;;;;;;8.45;2.88;;;;;;;;;;5036318;28;20033;-67
2022/03/28 07:31:40;;;;;;;4.20;3.05;;;;;;;;;;5031399;28;20480;-68
2022/03/28 07:36:52;;;;;;;6.70;3.10;;;;;;;;;;5016454;28;20037;-67
2022/03/28 07:39:21;;;;;;;7.38;2.92;;;;;;;;;;5016091;28;20029;-67
2022/03/28 07:41:47;;;;;;;7.13;2.97;;;;;;;;;;5016231;28;20041;-67
2022/03/28 07:44:13;;;;;;;6.97;3.17;;;;;;;;;;5016529;28;20153;-68
2022/03/28 07:46:40;;;;;;;5.50;2.75;;;;;;;;;;5016233;28;20025;-67
2022/03/28 07:49:07;;;;;;;7.72;3.30;;;;;;;;;;5022852;28;20035;-67
2022/03/28 07:51:33;;;;;;;4.88;2.80;;;;;;;;;;5035450;28;20032;-67
2022/03/28 07:53:59;;;;;;;5.47;2.70;;;;;;;;;;5041544;28;20021;-68
2022/03/28 07:56:25;;;;;;;6.70;2.65;;;;;;;;;;5048378;28;20025;-67
2022/03/28 07:58:52;;;;;;;7.40;2.75;;;;;;;;;;5017912;28;20113;-66
2022/03/28 08:01:18;;;;;;;5.20;3.00;;;;;;;;;;5035192;28;20035;-67
2022/03/28 08:03:44;;;;;;;4.00;2.72;;;;;;;;;;5022801;28;20038;-68
2022/03/28 08:06:10;;;;;;;7.45;2.83;;;;;;;;;;5017870;28;20037;-68
2022/03/28 08:08:37;;;;;;;7.30;2.53;;;;;;;;;;5035070;28;20085;-68
2022/03/28 08:11:04;;;;;;;5.13;2.70;;;;;;;;;;5035007;28;20041;-69
2022/03/28 08:13:30;;;;;;;4.88;2.80;;;;;;;;;;5035604;28;20028;-68
2022/03/28 08:15:56;;;;;;;8.32;3.40;;;;;;;;;;5035131;28;20077;-68
2022/03/28 08:18:22;;;;;;;4.10;2.45;;;;;;;;;;5035325;28;20061;-68
2022/03/28 08:20:48;;;;;;;2.78;2.30;;;;;;;;;;5026895;28;20418;-69
2022/03/28 08:23:16;;;;;;;6.55;2.72;;;;;;;;;;5016338;28;20484;-68
2022/03/28 08:25:42;;;;;;;3.65;2.60;;;;;;;;;;5017382;28;20029;-69
2022/03/28 08:28:08;;;;;;;5.95;3.03;;;;;;;;;;5017183;28;20065;-69
2022/03/28 08:30:35;;;;;;;6.40;2.70;;;;;;;;;;5034688;28;20022;-67
2022/03/28 08:33:01;;;;;;;4.28;2.25;;;;;;;;;;5034423;28;20037;-67
2022/03/28 08:35:28;;;;;;;4.07;2.53;;;;;;;;;;5034921;28;20108;-68
2022/03/28 08:37:54;;;;;;;4.95;2.70;;;;;;;;;;5035030;28;20021;-67
2022/03/28 08:40:20;;;;;;;4.47;2.60;;;;;;;;;;5034709;28;20022;-68
2022/03/28 08:42:48;;;;;;;3.33;2.58;;;;;;;;;;5034437;28;20036;-67
2022/03/28 08:45:14;;;;;;;6.18;2.58;;;;;;;;;;5041245;28;20025;-67
2022/03/28 08:47:42;;;;;;;4.45;2.83;;;;;;;;;;5048188;28;20031;-68
2022/03/28 08:50:10;;;;;;;4.85;3.08;;;;;;;;;;5042687;28;20021;-68
2022/03/28 08:52:36;;;;;;;4.10;2.80;;;;;;;;;;5046666;28;20032;-68
2022/03/28 08:55:02;;;;;;;5.68;2.60;;;;;;;;;;5046147;28;20052;-69
2022/03/28 08:57:28;;;;;;;4.18;2.58;;;;;;;;;;5025558;28;20438;-69
2022/03/28 08:59:54;;;;;;;2.88;2.38;;;;;;;;;;5044499;28;20456;-69
2022/03/28 09:02:31;;;;;;;4.40;2.67;;;;;;;;;;5042682;28;20051;-68
2022/03/28 09:04:57;;;;;;;5.15;2.42;;;;;;;;;;5036316;28;20097;-68
2022/03/28 09:07:27;;;;;;;4.47;2.45;;;;;;;;;;5054105;28;20053;-68
2022/03/28 09:09:59;;;;;;;3.72;2.55;;;;;;;;;;5036210;28;20021;-68
2022/03/28 09:12:25;;;;;;;5.10;2.83;;;;;;;;;;5036084;28;20091;-68
2022/03/28 09:14:56;;;;;;;3.25;2.47;;;;;;;;;;5054164;28;20031;-67
2022/03/28 09:17:22;;;;;;;3.97;2.60;;;;;;;;;;5054242;28;20098;-67
2022/03/28 09:20:00;;;;;;;3.58;2.85;;;;;;;;;;5036248;28;20074;-67
2022/03/28 09:22:26;;;;;;;3.08;2.03;;;;;;;;;;5051757;28;20456;-68
2022/03/28 09:24:57;;;;;;;5.03;2.92;;;;;;;;;;5040378;28;20107;-67
2022/03/28 09:27:25;;;;;;;4.32;2.90;;;;;;;;;;5054091;28;20024;-67
2022/03/28 09:29:53;;;;;;;4.28;3.20;;;;;;;;;;5053781;28;20033;-68
2022/03/28 09:32:21;;;;;;;3.90;2.67;;;;;;;;;;5053635;28;20033;-68
2022/03/28 09:35:01;;;;;;;3.97;2.53;;;;;;;;;;5053560;28;20059;-67
2022/03/28 09:37:27;;;;;;;4.28;3.00;;;;;;;;;;5052958;28;20027;-67
2022/03/28 09:39:53;;;;;;;4.43;2.67;;;;;;;;;;5053305;28;20454;-69
2022/03/28 09:42:19;;;;;;;4.97;3.00;;;;;;;;;;5053278;28;20501;-67
2022/03/28 09:44:46;;;;;;;5.55;3.25;;;;;;;;;;5052371;28;20154;-67
2022/03/28 09:47:20;;;;;;;6.00;3.20;;;;;;;;;;5053120;28;20127;-67
2022/03/28 09:49:47;;;;;;;4.90;2.78;;;;;;;;;;5052977;28;20025;-67
2022/03/28 09:52:17;;;;;;;5.25;3.10;;;;;;;;;;5052654;28;20097;-67
2022/03/28 09:54:44;;;;;;;4.03;2.95;;;;;;;;;;5053278;28;20029;-69
2022/03/28 09:57:11;;;;;;;4.85;2.95;;;;;;;;;;5045794;28;20388;-68
2022/03/28 09:59:38;;;;;;;3.83;3.13;;;;;;;;;;5032922;28;20489;-67
2022/03/28 10:02:33;;;;;;;3.53;2.80;;;;;;;;;;5032801;28;20024;-67
2022/03/28 10:04:59;;;;;;;4.57;2.78;;;;;;;;;;5026708;28;20124;-68
2022/03/28 10:07:25;;;;;;;4.07;3.00;;;;;;;;;;5046952;28;20107;-68
2022/03/28 10:09:53;;;;;;;4.20;2.67;;;;;;;;;;5052985;28;20060;-67
2022/03/28 10:12:19;;;;;;;4.53;2.92;;;;;;;;;;5052510;28;20040;-68
2022/03/28 10:14:47;;;;;;;4.10;2.95;;;;;;;;;;5052653;28;20112;-69
2022/03/28 10:17:13;;;;;;;4.07;2.70;;;;;;;;;;5052295;28;20526;-68
2022/03/28 10:19:39;;;;;;;4.10;2.88;;;;;;;;;;5053033;28;20100;-67
2022/03/28 10:22:13;;;;;;;4.93;2.92;;;;;;;;;;5052330;28;20021;-67
2022/03/28 10:24:41;;;;;;;4.72;3.00;;;;;;;;;;5039833;28;20069;-67
2022/03/28 10:27:08;;;;;;;4.55;3.13;;;;;;;;;;5043479;28;20087;-67
2022/03/28 10:29:35;;;;;;;5.13;2.70;;;;;;;;;;5040793;28;20020;-67
2022/03/28 10:32:06;;;;;;;3.38;2.60;;;;;;;;;;5040205;28;20128;-67
2022/03/28 10:34:39;;;;;;;3.88;3.05;;;;;;;;;;5029060;28;20109;-67
2022/03/28 10:37:32;;;;;;;3.58;2.60;;;;;;;;;;5040156;28;20480;-66
2022/03/28 10:40:17;;;;;;;4.03;2.75;;;;;;;;;;5010934;28;20038;-67
2022/03/28 10:42:47;;;;;;;4.57;3.10;;;;;;;;;;5033533;28;20052;-67
2022/03/28 10:45:19;;;;;;;4.32;2.70;;;;;;;;;;5043356;28;20110;-67
2022/03/28 10:47:55;;;;;;;5.97;3.28;;;;;;;;;;5048022;28;20396;-67
2022/03/28 10:50:38;;;;;;;6.68;2.97;;;;;;;;;;5042474;28;20030;-67
2022/03/28 10:53:05;;;;;;;3.30;2.47;;;;;;;;;;5040022;28;20028;-68
2022/03/28 10:55:37;;;;;;;4.45;2.95;;;;;;;;;;5045363;28;20084;-67
2022/03/28 10:58:35;;;;;;;11.93;3.07;;;;;;;;;;5042999;28;20055;-67
2022/03/28 11:01:12;;;;;;;8.45;2.70;;;;;;;;;;5009987;28;20029;-67
2022/03/28 11:04:00;;;;;;;5.47;3.03;;;;;;;;;;5043592;28;20033;-67
2022/03/28 11:06:45;;;;;;;6.47;2.90;;;;;;;;;;5011300;28;20053;-67
2022/03/28 11:09:11;;;;;;;6.50;3.20;;;;;;;;;;5042308;28;20037;-67
2022/03/28 11:11:55;;;;;;;14.82;2.65;;;;;;;;;;5042831;28;20044;-67
2022/03/28 11:14:37;;;;;;;6.45;2.35;;;;;;;;;;5041922;28;20013;-67
2022/03/28 11:17:13;;;;;;;5.32;3.05;;;;;;;;;;5037947;28;20060;-68
2022/03/28 11:19:51;;;;;;;4.90;3.05;;;;;;;;;;5038563;28;20057;-68
2022/03/28 11:22:17;;;;;;;4.47;2.60;;;;;;;;;;5040515;28;20029;-67
2022/03/28 11:24:51;;;;;;;3.10;2.42;;;;;;;;;;5039935;28;20025;-67
2022/03/28 11:27:18;;;;;;;4.25;2.80;;;;;;;;;;5034553;28;20026;-67
2022/03/28 11:29:45;;;;;;;3.85;2.70;;;;;;;;;;5014368;28;20029;-67
2022/03/28 11:32:15;;;;;;;4.70;2.88;;;;;;;;;;5031773;28;20045;-67
2022/03/28 11:34:41;;;;;;;7.47;3.10;;;;;;;;;;5031986;28;20032;-67
2022/03/28 11:37:07;;;;;;;4.82;2.67;;;;;;;;;;5014151;28;20036;-67
2022/03/28 11:40:07;;;;;;;5.88;2.95;;;;;;;;;;5031422;28;20028;-67
2022/03/28 11:42:34;;;;;;;6.13;3.00;;;;;;;;;;4988075;28;20459;-67
2022/03/28 11:45:08;;;;;;;4.35;2.50;;;;;;;;;;5031203;28;20031;-68
2022/03/28 11:47:35;;;;;;;7.32;2.83;;;;;;;;;;5031273;28;20144;-68
2022/03/28 11:50:03;;;;;;;5.60;2.40;;;;;;;;;;5013542;28;20449;-67
2022/03/28 11:52:29;;;;;;;4.57;2.70;;;;;;;;;;5031184;28;20038;-66
2022/03/28 11:54:56;;;;;;;6.95;2.70;;;;;;;;;;5031342;28;20033;-67
2022/03/28 12:00:20;;;;;;;4.82;2.85;;;;;;;;;;5031429;28;20105;-67
2022/03/28 12:02:50;;;;;;;5.25;2.53;;;;;;;;;;5030997;28;20033;-67
2022/03/28 12:05:28;;;;;;;3.88;2.50;;;;;;;;;;5031459;28;20036;-67
2022/03/28 12:07:55;;;;;;;4.10;2.30;;;;;;;;;;5014362;28;20157;-67
2022/03/28 12:10:29;;;;;;;5.60;2.97;;;;;;;;;;5016987;28;20365;-67
2022/03/28 12:12:56;;;;;;;3.72;2.58;;;;;;;;;;5034670;28;20483;-66
2022/03/28 12:15:26;;;;;;;5.18;2.45;;;;;;;;;;5016770;28;20108;-67
2022/03/28 12:17:57;;;;;;;2.95;2.25;;;;;;;;;;5034542;28;20045;-67
2022/03/28 12:20:26;;;;;;;4.03;2.35;;;;;;;;;;5034698;28;20040;-67
2022/03/28 12:22:52;;;;;;;7.13;2.67;;;;;;;;;;5016802;28;20115;-66
2022/03/28 12:25:35;;;;;;;3.92;2.60;;;;;;;;;;5016829;28;20025;-67
2022/03/28 12:28:03;;;;;;;3.97;2.33;;;;;;;;;;5016735;28;20532;-68
2022/03/28 12:30:30;;;;;;;3.95;2.35;;;;;;;;;;5016452;28;20075;-68
2022/03/28 12:32:56;;;;;;;4.47;2.63;;;;;;;;;;5016307;28;20436;-67
2022/03/28 12:35:23;;;;;;;6.07;2.70;;;;;;;;;;5034586;28;20017;-68
2022/03/28 12:37:59;;;;;;;3.85;2.92;;;;;;;;;;5034362;28;20491;-68
2022/03/28 12:40:29;;;;;;;5.05;2.65;;;;;;;;;;5034413;28;20485;-68
2022/03/28 12:42:55;;;;;;;5.10;2.75;;;;;;;;;;5034130;28;20017;-67
2022/03/28 12:45:29;;;;;;;5.90;2.80;;;;;;;;;;5034099;28;20033;-68
2022/03/28 12:47:56;;;;;;;4.05;2.78;;;;;;;;;;5034165;28;20022;-67
2022/03/28 12:50:26;;;;;;;3.67;2.33;;;;;;;;;;5033995;28;20033;-67
2022/03/28 12:52:53;;;;;;;4.35;3.10;;;;;;;;;;5033926;28;20029;-67
2022/03/28 12:55:26;;;;;;;7.40;3.75;;;;;;;;;;5034262;28;20022;-68
2022/03/28 12:57:52;;;;;;;6.28;3.58;;;;;;;;;;5033984;28;20036;-68
2022/03/28 13:00:27;;;;;;;6.88;3.30;;;;;;;;;;5016588;28;20053;-67
2022/03/28 13:02:54;;;;;;;6.90;3.70;;;;;;;;;;5033880;28;20056;-67
2022/03/28 13:05:20;;;;;;;5.38;3.67;;;;;;;;;;5034063;28;20033;-67
2022/03/28 13:07:47;;;;;;;5.30;3.50;;;;;;;;;;5034076;28;20021;-67
2022/03/28 13:10:20;;;;;;;6.30;4.05;;;;;;;;;;5034146;28;20350;-67
2022/03/28 13:12:47;;;;;;;5.93;3.80;;;;;;;;;;5016225;28;20033;-67
2022/03/28 13:15:20;;;;;;;7.32;4.20;;;;;;;;;;5033844;28;20448;-67
2022/03/28 13:17:48;;;;;;;7.90;4.50;;;;;;;;;;5033901;28;20045;-67
2022/03/28 13:20:21;;;;;;;8.23;4.00;;;;;;;;;;5014899;28;20346;-68
2022/03/28 13:22:47;;;;;;;7.55;4.38;;;;;;;;;;5033568;28;20469;-68
2022/03/28 13:25:19;;;;;;;5.28;3.95;;;;;;;;;;5016043;28;20025;-66
2022/03/28 13:28:02;;;;;;;7.60;4.53;;;;;;;;;;5033601;28;20021;-68
2022/03/28 13:30:28;;;;;;;;;;;;;;;;;;5033900;28;20030;-68
2022/03/28 13:32:55;;;;;;;8.65;4.22;;;;;;;;;;5033521;28;19912;-67
2022/03/28 13:35:22;;;;;;;6.78;3.90;;;;;;;;;;5015862;28;20026;-67
2022/03/28 13:37:54;;;;;;;8.18;3.97;;;;;;;;;;5015764;28;20060;-67
2022/03/28 13:40:21;;;;;;;10.05;4.55;;;;;;;;;;5033390;28;20040;-68
2022/03/28 13:42:46;;;;;;;9.20;4.20;;;;;;;;;;5033155;28;20461;-67
2022/03/28 13:45:13;;;;;;;8.23;4.35;;;;;;;;;;5015508;28;20032;-68
2022/03/28 13:47:39;;;;;;;8.48;4.40;;;;;;;;;;5033407;28;20105;-68
2022/03/28 13:50:05;;;;;;;6.97;4.28;;;;;;;;;;5033448;28;20105;-66
2022/03/28 13:52:32;;;;;;;9.75;4.50;;;;;;;;;;5032993;28;20037;-67
2022/03/28 13:54:58;;;;;;;8.43;4.00;;;;;;;;;;5033271;28;20029;-67
2022/03/28 13:57:26;;;;;;;8.65;4.05;;;;;;;;;;5033109;28;20029;-67
2022/03/28 13:59:52;;;;;;;12.43;4.53;;;;;;;;;;5033164;28;20022;-67
2022/03/28 14:02:19;;;;;;;8.15;4.38;;;;;;;;;;5032887;28;20464;-68
2022/03/28 14:04:45;;;;;;;9.20;4.30;;;;;;;;;;5015380;28;20025;-68
2022/03/28 14:07:11;;;;;;;7.03;3.90;;;;;;;;;;5015227;28;20033;-68
2022/03/28 14:09:37;;;;;;;7.95;3.97;;;;;;;;;;5015269;28;20361;-68
2022/03/28 14:12:03;;;;;;;5.70;3.55;;;;;;;;;;5014615;28;20130;-67
2022/03/28 14:14:29;;;;;;;7.50;3.92;;;;;;;;;;5032413;28;20053;-67
2022/03/28 14:16:55;;;;;;;8.35;3.70;;;;;;;;;;5032628;28;20076;-67
2022/03/28 14:19:22;;;;;;;9.27;3.42;;;;;;;;;;5032910;28;20737;-68
2022/03/28 14:21:48;;;;;;;6.50;3.65;;;;;;;;;;5032653;28;20585;-68
2022/03/28 14:24:14;;;;;;;9.90;3.42;;;;;;;;;;5019076;28;20017;-68
2022/03/28 14:26:40;;;;;;;8.32;3.72;;;;;;;;;;5049182;28;20052;-68
2022/03/28 14:29:06;;;;;;;6.88;3.58;;;;;;;;;;5044910;28;20464;-67
2022/03/28 14:31:32;;;;;;;7.20;3.42;;;;;;;;;;5041628;28;20065;-68
2022/03/28 14:33:58;;;;;;;7.00;3.20;;;;;;;;;;5022960;28;20307;-67
2022/03/28 14:36:24;;;;;;;5.45;3.08;;;;;;;;;;5034914;28;20514;-68
2022/03/28 14:38:50;;;;;;;7.85;3.75;;;;;;;;;;5014635;28;20029;-68
2022/03/28 14:41:17;;;;;;;7.53;3.67;;;;;;;;;;5032299;28;20508;-68
2022/03/28 14:43:43;;;;;;;7.90;3.75;;;;;;;;;;5031994;28;20373;-68
2022/03/28 14:48:53;;;;;;;7.97;3.28;;;;;;;;;;5032622;28;20048;-68
2022/03/28 14:51:19;;;;;;;6.20;3.15;;;;;;;;;;5031930;28;20421;-67
2022/03/28 14:53:46;;;;;;;7.10;3.15;;;;;;;;;;5032068;28;20025;-68